createdAt,value
2019-04-04T00:02:29.343Z,85.76
2019-04-04T00:04:58.822Z,85.86
2019-04-04T00:07:29.057Z,85.99
2019-04-04T00:09:59.767Z,86.10
2019-04-04T00:12:29.266Z,85.77
2019-04-04T00:14:58.743Z,85.95
2019-04-04T00:17:28.172Z,85.99
2019-04-04T00:19:59.012Z,86.44
2019-04-04T00:22:28.762Z,86.77
2019-04-04T00:24:58.198Z,87.16
2019-04-04T00:27:27.674Z,87.48
2019-04-04T00:29:57.169Z,87.07
2019-04-04T00:32:26.638Z,87.11
2019-04-04T00:34:57.867Z,87.12
2019-04-04T00:37:28.014Z,86.99
2019-04-04T00:39:57.514Z,86.56
2019-04-04T00:42:28.866Z,86.31
2019-04-04T00:44:58.300Z,86.29
2019-04-04T00:47:27.713Z,86.22
2019-04-04T00:49:57.316Z,86.12
2019-04-04T00:52:26.732Z,86.30
2019-04-04T00:54:56.170Z,85.94
2019-04-04T00:57:25.578Z,85.97
2019-04-04T00:59:58.564Z,86.72
2019-04-04T01:02:29.695Z,86.88
2019-04-04T01:05:01.331Z,86.39
2019-04-04T01:07:32.153Z,86.26
2019-04-04T01:10:01.661Z,85.95
2019-04-04T01:12:36.601Z,85.71
2019-04-04T01:15:06.974Z,85.70
2019-04-04T01:17:36.396Z,85.70
2019-04-04T01:20:08.519Z,86.19
2019-04-04T01:22:38.489Z,86.20
2019-04-04T01:25:08.249Z,86.56
2019-04-04T01:27:37.779Z,86.63
2019-04-04T01:30:08.394Z,86.77
2019-04-04T01:32:39.675Z,87.06
2019-04-04T01:35:09.223Z,86.64
2019-04-04T01:37:39.155Z,86.51
2019-04-04T01:40:08.875Z,86.33
2019-04-04T01:42:38.941Z,85.72
2019-04-04T01:45:08.831Z,85.64
2019-04-04T01:47:38.341Z,85.58
2019-04-04T01:50:08.001Z,86.53
2019-04-04T01:52:37.447Z,87.05
2019-04-04T01:55:07.102Z,87.55
2019-04-04T01:57:38.896Z,87.86
2019-04-04T02:00:14.672Z,88.08
2019-04-04T02:02:42.918Z,88.19
2019-04-04T02:05:12.948Z,87.68
2019-04-04T02:07:42.796Z,87.09
2019-04-04T02:10:12.583Z,87.13
2019-04-04T02:12:41.996Z,87.21
2019-04-04T02:15:13.963Z,87.11
2019-04-04T02:17:44.484Z,86.52
2019-04-04T02:20:15.561Z,86.02
2019-04-04T02:22:45.049Z,86.76
2019-04-04T02:25:14.615Z,87.00
2019-04-04T02:27:44.134Z,86.89
2019-04-04T02:30:16.092Z,86.71
2019-04-04T02:32:45.219Z,86.80
2019-04-04T02:35:17.344Z,87.06
2019-04-04T02:37:45.909Z,87.32
2019-04-04T02:40:15.755Z,88.01
2019-04-04T02:42:45.166Z,87.72
2019-04-04T02:45:14.747Z,87.16
2019-04-04T02:47:44.189Z,87.39
2019-04-04T02:50:14.321Z,87.75
2019-04-04T02:52:46.095Z,87.84
2019-04-04T02:55:15.280Z,87.69
2019-04-04T02:57:44.842Z,87.43
2019-04-04T03:00:14.615Z,87.43
2019-04-04T03:02:44.105Z,87.49
2019-04-04T03:05:13.682Z,87.50
2019-04-04T03:07:43.162Z,87.76
2019-04-04T03:10:16.452Z,87.80
2019-04-04T03:12:44.041Z,87.75
2019-04-04T03:15:13.644Z,87.96
2019-04-04T03:17:43.130Z,87.86
2019-04-04T03:20:16.338Z,87.76
2019-04-04T03:22:44.090Z,87.51
2019-04-04T03:25:14.786Z,87.50
2019-04-04T03:27:45.194Z,87.88
2019-04-04T03:30:17.217Z,88.17
2019-04-04T03:32:51.423Z,88.06
2019-04-04T03:35:16.932Z,88.19
2019-04-04T03:37:47.986Z,88.24
2019-04-04T03:40:17.491Z,87.11
2019-04-04T03:42:46.919Z,87.08
2019-04-04T03:45:16.367Z,87.50
2019-04-04T03:47:45.824Z,87.66
2019-04-04T03:50:15.301Z,87.60
2019-04-04T03:52:46.262Z,87.36
2019-04-04T03:55:16.773Z,87.10
2019-04-04T03:57:46.184Z,87.26
2019-04-04T04:00:27.267Z,87.30
2019-04-04T04:02:56.771Z,86.60
2019-04-04T04:05:34.569Z,86.54
2019-04-04T04:08:02.244Z,86.84
2019-04-04T04:10:33.723Z,86.99
2019-04-04T04:13:02.896Z,87.35
2019-04-04T04:15:33.916Z,87.43
2019-04-04T04:18:03.425Z,87.67
2019-04-04T04:20:37.544Z,87.32
2019-04-04T04:23:05.642Z,87.32
2019-04-04T04:25:36.605Z,87.28
2019-04-04T04:28:06.415Z,87.23
2019-04-04T04:30:39.415Z,87.31
2019-04-04T04:33:07.323Z,87.41
2019-04-04T04:35:40.812Z,87.46
2019-04-04T04:38:07.944Z,87.97
2019-04-04T04:40:38.836Z,87.90
2019-04-04T04:43:08.276Z,87.97
2019-04-04T04:45:37.735Z,88.11
2019-04-04T04:48:07.148Z,88.46
2019-04-04T04:50:40.020Z,88.44
2019-04-04T04:53:10.155Z,88.80
2019-04-04T04:55:39.596Z,88.36
2019-04-04T04:58:10.292Z,87.90
2019-04-04T05:00:40.234Z,87.77
2019-04-04T05:03:09.739Z,87.85
2019-04-04T05:05:39.227Z,88.45
2019-04-04T05:08:10.092Z,88.78
2019-04-04T05:10:39.795Z,88.54
2019-04-04T05:13:12.184Z,88.61
2019-04-04T05:15:41.594Z,88.58
2019-04-04T05:18:11.986Z,88.53
2019-04-04T05:20:41.599Z,88.17
2019-04-04T05:23:11.360Z,88.62
2019-04-04T05:25:52.093Z,88.53
2019-04-04T05:28:13.273Z,88.60
2019-04-04T05:30:42.671Z,89.04
2019-04-04T05:33:12.517Z,88.68
2019-04-04T05:35:41.964Z,88.56
2019-04-04T05:38:12.434Z,88.73
2019-04-04T05:40:42.297Z,88.41
2019-04-04T05:43:14.736Z,88.31
2019-04-04T05:45:44.838Z,88.92
2019-04-04T05:48:14.039Z,88.08
2019-04-04T05:50:44.305Z,88.05
2019-04-04T05:53:13.863Z,88.56
2019-04-04T05:55:46.099Z,88.42
2019-04-04T05:58:15.482Z,87.89
2019-04-04T06:00:46.381Z,87.68
2019-04-04T06:03:16.017Z,88.46
2019-04-04T06:05:45.393Z,88.29
2019-04-04T06:08:14.827Z,88.88
2019-04-04T06:10:44.314Z,88.72
2019-04-04T06:13:14.725Z,88.96
2019-04-04T06:15:44.168Z,89.31
2019-04-04T06:18:13.585Z,88.99
2019-04-04T06:20:43.023Z,88.83
2019-04-04T06:23:12.468Z,88.06
2019-04-04T06:25:41.995Z,88.26
2019-04-04T06:28:12.040Z,87.56
2019-04-04T06:30:43.337Z,88.58
2019-04-04T06:33:13.375Z,88.44
2019-04-04T06:35:42.880Z,88.33
2019-04-04T06:38:12.300Z,87.90
2019-04-04T06:40:42.821Z,87.71
2019-04-04T06:43:12.341Z,87.08
2019-04-04T06:45:41.757Z,87.20
2019-04-04T06:48:11.195Z,87.12
2019-04-04T06:50:43.005Z,86.81
2019-04-04T06:53:11.904Z,86.33
2019-04-04T06:55:41.398Z,86.26
2019-04-04T06:58:10.814Z,85.77
2019-04-04T07:00:42.022Z,86.73
2019-04-04T07:03:11.370Z,86.46
2019-04-04T07:05:40.912Z,86.58
2019-04-04T07:08:10.309Z,86.08
2019-04-04T07:10:39.756Z,86.17
2019-04-04T07:13:21.115Z,85.99
2019-04-04T07:15:46.744Z,86.22
2019-04-04T07:18:12.243Z,85.45
2019-04-04T07:20:42.476Z,85.96
2019-04-04T07:23:14.273Z,85.78
2019-04-04T07:25:43.026Z,85.97
2019-04-04T07:28:12.536Z,85.59
2019-04-04T07:30:41.970Z,86.11
2019-04-04T07:33:12.670Z,85.26
2019-04-04T07:35:42.512Z,84.98
2019-04-04T07:38:11.936Z,85.09
2019-04-04T07:40:41.448Z,85.32
2019-04-04T07:43:10.874Z,85.99
2019-04-04T07:45:41.406Z,85.89
2019-04-04T07:48:12.366Z,85.92
2019-04-04T07:50:43.012Z,85.20
2019-04-04T07:53:12.458Z,85.35
2019-04-04T07:55:44.591Z,84.82
2019-04-04T07:58:14.022Z,85.02
2019-04-04T08:00:43.525Z,84.48
2019-04-04T08:03:12.961Z,84.53
2019-04-04T08:05:43.477Z,84.23
2019-04-04T08:08:12.893Z,84.44
2019-04-04T08:10:42.341Z,83.24
2019-04-04T08:13:11.822Z,84.19
2019-04-04T08:15:41.270Z,84.24
2019-04-04T08:18:10.747Z,83.78
2019-04-04T08:20:40.692Z,83.57
2019-04-04T08:23:10.188Z,82.61
2019-04-04T08:25:39.642Z,83.21
2019-04-04T08:28:09.063Z,82.63
2019-04-04T08:30:38.521Z,82.47
2019-04-04T08:33:07.931Z,81.21
2019-04-04T08:35:37.375Z,81.80
2019-04-04T08:38:06.887Z,82.01
2019-04-04T08:40:37.381Z,82.31
2019-04-04T08:43:06.816Z,80.96
2019-04-04T08:45:36.251Z,81.88
2019-04-04T08:48:05.734Z,82.71
2019-04-04T08:50:35.181Z,81.06
2019-04-04T08:53:04.767Z,80.53
2019-04-04T08:55:34.264Z,81.14
2019-04-04T08:58:04.675Z,81.10
2019-04-04T09:00:35.757Z,81.14
2019-04-04T09:03:05.300Z,81.03
2019-04-04T09:05:34.803Z,80.79
2019-04-04T09:08:04.361Z,80.43
2019-04-04T09:10:33.798Z,80.71
2019-04-04T09:13:03.330Z,81.06
2019-04-04T09:15:32.830Z,80.95
2019-04-04T09:18:02.282Z,81.43
2019-04-04T09:20:31.766Z,81.87
2019-04-04T09:23:01.275Z,80.87
2019-04-04T09:25:30.852Z,81.19
2019-04-04T09:28:01.240Z,79.80
2019-04-04T09:30:32.366Z,80.43
2019-04-04T09:33:01.846Z,81.18
2019-04-04T09:35:31.360Z,80.89
2019-04-04T09:38:00.776Z,79.12
2019-04-04T09:40:30.198Z,80.20
2019-04-04T09:42:59.634Z,78.50
2019-04-04T09:45:29.123Z,78.89
2019-04-04T09:47:58.701Z,79.33
2019-04-04T09:50:28.139Z,80.10
2019-04-04T09:52:57.647Z,78.95
2019-04-04T09:55:27.066Z,78.01
2019-04-04T09:57:56.575Z,79.32
2019-04-04T10:00:26.198Z,78.35
2019-04-04T10:02:55.804Z,78.81
2019-04-04T10:05:25.302Z,78.91
2019-04-04T10:07:54.872Z,79.43
2019-04-04T10:10:24.285Z,78.58
2019-04-04T10:12:53.732Z,78.27
2019-04-04T10:15:23.261Z,77.82
2019-04-04T10:17:52.671Z,77.48
2019-04-04T10:20:22.110Z,77.40
2019-04-04T10:22:51.621Z,78.21
2019-04-04T10:25:22.115Z,78.43
2019-04-04T10:27:51.553Z,78.47
2019-04-04T10:30:21.410Z,78.36
2019-04-04T10:32:50.915Z,78.20
2019-04-04T10:35:20.331Z,78.13
2019-04-04T10:37:49.841Z,78.74
2019-04-04T10:40:19.399Z,77.85
2019-04-04T10:42:48.824Z,78.40
2019-04-04T10:45:18.398Z,78.37
2019-04-04T10:47:47.905Z,77.46
2019-04-04T10:50:17.400Z,78.27
2019-04-04T10:52:46.839Z,78.44
2019-04-04T10:55:16.395Z,78.58
2019-04-04T10:57:45.919Z,78.06
2019-04-04T11:00:16.831Z,77.87
2019-04-04T11:02:46.315Z,79.23
2019-04-04T11:05:15.899Z,78.14
2019-04-04T11:07:45.337Z,78.90
2019-04-04T11:10:15.247Z,78.47
2019-04-04T11:12:44.666Z,78.69
2019-04-04T11:15:14.179Z,79.51
2019-04-04T11:17:43.602Z,79.39
2019-04-04T11:20:13.185Z,79.15
2019-04-04T11:22:42.632Z,78.40
2019-04-04T11:25:12.722Z,79.01
2019-04-04T11:27:42.134Z,78.38
2019-04-04T11:30:12.414Z,77.48
2019-04-04T11:32:42.006Z,77.92
2019-04-04T11:35:11.433Z,78.79
2019-04-04T11:37:40.889Z,79.09
2019-04-04T11:40:11.698Z,79.18
2019-04-04T11:42:41.206Z,79.45
2019-04-04T11:45:10.963Z,79.41
2019-04-04T11:47:41.293Z,78.74
2019-04-04T11:50:11.045Z,78.08
2019-04-04T11:52:40.550Z,77.78
2019-04-04T11:55:10.071Z,77.69
2019-04-04T11:57:40.064Z,77.66
2019-04-04T12:00:11.886Z,76.96
2019-04-04T12:02:41.427Z,77.49
2019-04-04T12:05:11.186Z,78.43
2019-04-04T12:07:40.682Z,78.03
2019-04-04T12:10:10.487Z,79.18
2019-04-04T12:12:39.902Z,78.25
2019-04-04T12:15:09.489Z,77.86
2019-04-04T12:17:38.922Z,78.07
2019-04-04T12:20:08.803Z,77.92
2019-04-04T12:22:38.281Z,79.04
2019-04-04T12:25:07.875Z,78.94
2019-04-04T12:27:37.357Z,79.14
2019-04-04T12:30:08.149Z,78.06
2019-04-04T12:32:37.555Z,78.25
2019-04-04T12:35:08.121Z,78.91
2019-04-04T12:37:37.536Z,78.90
2019-04-04T12:40:19.740Z,79.19
2019-04-04T12:42:39.583Z,78.89
2019-04-04T12:45:10.361Z,79.75
2019-04-04T12:47:39.767Z,79.58
2019-04-04T12:50:09.865Z,79.91
2019-04-04T12:52:39.375Z,79.55
2019-04-04T12:55:09.752Z,79.89
2019-04-04T12:57:42.333Z,80.52
2019-04-04T13:00:12.630Z,80.93
2019-04-04T13:02:42.181Z,80.89
2019-04-04T13:05:11.864Z,79.80
2019-04-04T13:07:41.366Z,80.08
2019-04-04T13:10:12.257Z,80.84
2019-04-04T13:12:41.971Z,80.92
2019-04-04T13:15:11.659Z,79.86
2019-04-04T13:17:41.215Z,79.84
2019-04-04T13:20:11.118Z,78.75
2019-04-04T13:22:40.608Z,78.90
2019-04-04T13:25:10.587Z,79.85
2019-04-04T13:27:40.207Z,79.13
2019-04-04T13:30:14.177Z,79.41
2019-04-04T13:32:43.667Z,79.25
2019-04-04T13:35:13.257Z,78.35
2019-04-04T13:37:42.821Z,78.68
2019-04-04T13:40:12.532Z,79.12
2019-04-04T13:42:41.976Z,79.04
2019-04-04T13:45:11.721Z,80.36
2019-04-04T13:47:41.310Z,79.64
2019-04-04T13:50:12.927Z,80.28
2019-04-04T13:52:42.358Z,80.69
2019-04-04T13:55:11.924Z,80.68
2019-04-04T13:57:41.516Z,81.67
2019-04-04T14:00:11.470Z,81.55
2019-04-04T14:02:40.996Z,81.36
2019-04-04T14:05:14.175Z,81.76
2019-04-04T14:07:43.928Z,80.86
2019-04-04T14:10:17.088Z,81.18
2019-04-04T14:12:44.896Z,81.41
2019-04-04T14:15:14.662Z,81.01
2019-04-04T14:17:44.357Z,81.74
2019-04-04T14:20:14.427Z,81.35
2019-04-04T14:22:43.870Z,82.07
2019-04-04T14:25:13.389Z,82.90
2019-04-04T14:27:42.909Z,81.86
2019-04-04T14:30:13.211Z,82.21
2019-04-04T14:32:42.836Z,82.55
2019-04-04T14:35:12.392Z,83.19
2019-04-04T14:37:42.299Z,82.82
2019-04-04T14:40:12.167Z,82.39
2019-04-04T14:42:41.771Z,82.64
2019-04-04T14:45:11.439Z,82.08
2019-04-04T14:47:40.951Z,81.74
2019-04-04T14:50:11.235Z,81.87
2019-04-04T14:52:40.742Z,82.22
2019-04-04T14:55:10.515Z,81.92
2019-04-04T14:57:40.249Z,82.10
2019-04-04T15:00:11.619Z,82.23
2019-04-04T15:02:41.115Z,82.38
2019-04-04T15:05:10.717Z,82.40
2019-04-04T15:07:40.341Z,82.53
2019-04-04T15:10:09.918Z,82.85
2019-04-04T15:12:39.432Z,83.43
2019-04-04T15:15:09.015Z,83.18
2019-04-04T15:17:38.510Z,82.81
2019-04-04T15:20:09.001Z,82.22
2019-04-04T15:22:38.523Z,82.25
2019-04-04T15:25:08.159Z,82.71
2019-04-04T15:27:37.655Z,82.61
2019-04-04T15:30:08.589Z,82.78
2019-04-04T15:32:38.137Z,82.65
2019-04-04T15:35:07.649Z,82.83
2019-04-04T15:37:37.082Z,82.76
2019-04-04T15:40:07.376Z,82.27
2019-04-04T15:42:37.363Z,82.50
2019-04-04T15:45:07.926Z,82.38
2019-04-04T15:47:39.642Z,82.57
2019-04-04T15:50:09.743Z,82.83
2019-04-04T15:52:41.050Z,82.92
2019-04-04T15:55:10.610Z,82.60
2019-04-04T15:57:40.030Z,82.72
2019-04-04T16:00:10.816Z,82.71
2019-04-04T16:02:40.316Z,82.49
2019-04-04T16:05:13.328Z,81.89
2019-04-04T16:07:42.825Z,81.97
2019-04-04T16:10:12.691Z,82.08
2019-04-04T16:12:42.177Z,81.82
2019-04-04T16:15:11.856Z,81.62
2019-04-04T16:17:41.326Z,81.67
2019-04-04T16:20:11.245Z,81.72
2019-04-04T16:22:40.790Z,82.14
2019-04-04T16:25:10.683Z,81.94
2019-04-04T16:27:40.150Z,81.99
2019-04-04T16:30:09.946Z,82.27
2019-04-04T16:32:39.453Z,82.64
2019-04-04T16:35:10.202Z,82.55
2019-04-04T16:37:39.718Z,82.06
2019-04-04T16:40:10.967Z,81.41
2019-04-04T16:42:40.500Z,81.85
2019-04-04T16:45:10.164Z,81.81
2019-04-04T16:47:39.701Z,82.04
2019-04-04T16:50:10.362Z,81.92
2019-04-04T16:52:39.785Z,82.13
2019-04-04T16:55:09.831Z,82.04
2019-04-04T16:57:39.389Z,81.52
2019-04-04T17:00:13.602Z,81.26
2019-04-04T17:02:43.174Z,81.48
2019-04-04T17:05:13.163Z,81.55
2019-04-04T17:07:42.618Z,81.59
2019-04-04T17:10:12.432Z,81.40
2019-04-04T17:12:41.877Z,81.28
2019-04-04T17:15:11.597Z,81.49
2019-04-04T17:17:42.697Z,81.55
2019-04-04T17:20:14.023Z,81.65
2019-04-04T17:22:43.451Z,81.65
2019-04-04T17:25:15.911Z,81.81
2019-04-04T17:27:44.067Z,81.80
2019-04-04T17:30:14.051Z,81.95
2019-04-04T17:32:43.561Z,82.20
2019-04-04T17:35:13.347Z,82.33
2019-04-04T17:37:42.806Z,82.74
2019-04-04T17:40:12.989Z,82.99
2019-04-04T17:42:42.993Z,83.10
2019-04-04T17:45:13.999Z,83.23
2019-04-04T17:47:43.383Z,83.35
2019-04-04T17:50:14.437Z,83.24
2019-04-04T17:52:44.093Z,83.11
2019-04-04T17:55:14.759Z,83.36
2019-04-04T17:57:44.272Z,82.70
2019-04-04T18:00:16.237Z,82.82
2019-04-04T18:02:45.770Z,82.85
2019-04-04T18:05:16.512Z,83.01
2019-04-04T18:07:47.591Z,82.98
2019-04-04T18:10:17.481Z,83.07
2019-04-04T18:12:47.679Z,83.26
2019-04-04T18:15:17.366Z,83.41
2019-04-04T18:17:46.808Z,83.63
2019-04-04T18:20:16.787Z,83.66
2019-04-04T18:22:47.912Z,83.65
2019-04-04T18:25:17.332Z,83.60
2019-04-04T18:27:46.929Z,83.68
2019-04-04T18:30:17.676Z,83.81
2019-04-04T18:32:47.414Z,83.71
2019-04-04T18:35:18.625Z,83.71
2019-04-04T18:37:51.821Z,84.02
2019-04-04T18:40:21.426Z,84.29
2019-04-04T18:42:53.450Z,84.39
2019-04-04T18:45:26.788Z,84.43
2019-04-04T18:47:53.429Z,84.50
2019-04-04T18:50:23.828Z,84.44
2019-04-04T18:52:53.287Z,84.75
2019-04-04T18:55:28.140Z,84.42
2019-04-04T18:58:06.723Z,84.43
2019-04-04T19:00:37.044Z,84.45
2019-04-04T19:03:06.615Z,84.64
2019-04-04T19:05:36.209Z,84.59
2019-04-04T19:08:05.796Z,84.79
2019-04-04T19:10:36.646Z,84.38
2019-04-04T19:13:09.041Z,84.58
2019-04-04T19:15:38.543Z,85.11
2019-04-04T19:18:08.105Z,85.21
2019-04-04T19:20:37.622Z,85.13
2019-04-04T19:23:07.289Z,85.05
2019-04-04T19:25:36.780Z,85.27
2019-04-04T19:28:12.875Z,85.59
2019-04-04T19:30:43.950Z,85.76
2019-04-04T19:33:16.581Z,85.80
2019-04-04T19:35:53.535Z,85.58
2019-04-04T19:38:22.971Z,85.70
2019-04-04T19:40:57.325Z,85.87
2019-04-04T19:43:28.343Z,85.68
2019-04-04T19:45:57.853Z,85.45
2019-04-04T19:48:29.331Z,85.85
2019-04-04T19:50:58.776Z,85.95
2019-04-04T19:53:28.281Z,85.58
2019-04-04T19:55:59.211Z,85.43
2019-04-04T19:58:30.431Z,85.47
2019-04-04T20:01:00.082Z,85.72
2019-04-04T20:03:33.329Z,85.39
2019-04-04T20:06:02.792Z,85.51
2019-04-04T20:08:33.911Z,85.58
2019-04-04T20:11:05.218Z,85.61
2019-04-04T20:13:34.707Z,85.49
2019-04-04T20:16:04.368Z,85.55
2019-04-04T20:18:33.861Z,85.49
2019-04-04T20:21:03.361Z,85.44
2019-04-04T20:23:32.755Z,85.54
2019-04-04T20:26:02.281Z,85.62
2019-04-04T20:28:31.905Z,85.49
2019-04-04T20:31:01.404Z,85.48
2019-04-04T20:33:30.874Z,85.44
2019-04-04T20:36:03.244Z,85.71
2019-04-04T20:38:32.806Z,85.26
2019-04-04T20:41:02.220Z,85.26
2019-04-04T20:43:42.728Z,85.22
2019-04-04T20:46:03.733Z,85.40
2019-04-04T20:48:33.147Z,85.17
2019-04-04T20:51:05.548Z,85.42
2019-04-04T20:53:35.076Z,85.49
2019-04-04T20:56:04.638Z,85.19
2019-04-04T20:58:34.154Z,85.51
2019-04-04T21:01:05.323Z,85.76
2019-04-04T21:03:35.323Z,85.27
2019-04-04T21:06:07.150Z,85.40
2019-04-04T21:08:37.231Z,85.44
2019-04-04T21:11:06.722Z,85.08
2019-04-04T21:13:36.268Z,85.34
2019-04-04T21:16:07.322Z,85.36
2019-04-04T21:18:36.766Z,85.49
2019-04-04T21:21:06.248Z,85.55
2019-04-04T21:23:35.688Z,86.06
2019-04-04T21:26:05.175Z,86.02
2019-04-04T21:28:35.990Z,86.10
2019-04-04T21:31:05.478Z,85.92
2019-04-04T21:33:35.150Z,86.03
2019-04-04T21:36:04.716Z,86.14
2019-04-04T21:38:37.259Z,86.18
2019-04-04T21:41:06.703Z,85.79
2019-04-04T21:43:36.143Z,85.92
2019-04-04T21:46:05.664Z,85.96
2019-04-04T21:48:35.165Z,86.02
2019-04-04T21:51:04.579Z,85.94
2019-04-04T21:53:34.095Z,86.10
2019-04-04T21:56:03.754Z,86.01
2019-04-04T21:58:33.191Z,85.79
2019-04-04T22:01:02.772Z,85.96
2019-04-04T22:03:36.780Z,85.97
2019-04-04T22:06:06.528Z,86.07
2019-04-04T22:08:35.973Z,86.03
2019-04-04T22:11:07.156Z,86.08
2019-04-04T22:13:36.968Z,86.13
2019-04-04T22:16:06.670Z,86.02
2019-04-04T22:18:36.180Z,85.93
2019-04-04T22:21:06.995Z,85.95
2019-04-04T22:23:36.735Z,86.04
2019-04-04T22:26:06.466Z,85.67
2019-04-04T22:28:35.929Z,85.70
2019-04-04T22:31:05.392Z,85.78
2019-04-04T22:33:34.976Z,85.62
2019-04-04T22:36:04.631Z,85.45
2019-04-04T22:38:34.098Z,85.53
2019-04-04T22:41:05.198Z,85.52
2019-04-04T22:43:34.633Z,85.14
2019-04-04T22:46:06.114Z,84.71
2019-04-04T22:48:36.136Z,85.18
2019-04-04T22:51:05.822Z,85.33
2019-04-04T22:53:35.272Z,85.20
2019-04-04T22:56:05.303Z,84.74
2019-04-04T22:58:35.325Z,84.69
2019-04-04T23:01:04.941Z,84.71
2019-04-04T23:03:34.443Z,84.69
2019-04-04T23:06:03.978Z,85.07
2019-04-04T23:08:33.446Z,84.83
2019-04-04T23:11:04.032Z,84.90
2019-04-04T23:13:33.542Z,85.10
2019-04-04T23:16:03.004Z,84.79
2019-04-04T23:18:32.531Z,84.77
2019-04-04T23:21:01.982Z,84.76
2019-04-04T23:23:31.441Z,84.86
2019-04-04T23:26:00.952Z,85.24
2019-04-04T23:28:30.409Z,84.67
2019-04-04T23:31:00.187Z,84.55
2019-04-04T23:33:29.824Z,84.85
2019-04-04T23:35:59.251Z,84.99
2019-04-04T23:38:28.707Z,84.93
2019-04-04T23:40:59.397Z,85.11
2019-04-04T23:43:31.632Z,85.49
2019-04-04T23:46:01.083Z,85.55
2019-04-04T23:48:30.598Z,85.44
2019-04-04T23:51:02.252Z,85.46
2019-04-04T23:53:31.726Z,85.38
2019-04-04T23:56:01.251Z,85.27
2019-04-04T23:58:30.680Z,85.18
